Archival Weather

Chicago O'Hare International

Chicago, Illinois (KORD)

Report from: Wednesday, September 6, 2023 5:51 AM CDT
Current time: Wednesday, May 29, 2024 7:40 PM CDT

Current weather – Weather history – Daily summaries
Weather forecast

Temperature22.8°C (73.0°F)
Dew point19.4°C (66.9°F)
Winds 9 kts (4.6 m/s, 10.4 mph) South-Southwest (200°)
Visibility10 mi. (16.1 km)
Clouds Few clouds 1,200 ft. (366 m)
Ceiling: Broken clouds 3,500 ft. (1,067 m)
Overcast 9,500 ft. (2,896 m)
Altimeter29.77 in.Hg (1008 mB)
Precipitiation0.04 in. (1 mm)
Precip. events Rain ended 10:19 AM
Rain began 10:26 AM
Rain ended 10:35 AM
Thunderstorm ended 10:34 AM
Relative humidity81 %
Density altitude1,411 ft. (430 m)
Sea-level pressure100.7 kPa (1007 mB, 29.75 in.Hg)
Remarks Automated weather observing station with precipitation discriminator
Lightning observed
Pressure rising rapidly
Lightning observed: intra cloud, cloud to ground
Distant occasional distant southeast cumulonimbus clouds observed southeast moving northeast
Flight conditions Visual Meteorological Conditions
Raw dataKORD 061051Z 20009KT 10SM FEW012 BKN035 OVC095 23/19 A2977 RMK AO2 LTG DSNT ALQDS RAE19B26E35 TSE34 PRESRR SLP074 OCNL LTGICCG DSNT SE CB SE MOV NE P0004 T02280194
An error has occurred. This application may no longer respond until reloaded. Reload 🗙